Meath Environmental Platform

Observations for Trim Patrick St

Time AQI Temp °C Hum % Pres Pa CO μg/m³ H₂S μg/m³ NO μg/m³ NO₂ μg/m³ O₃ μg/m³ SO₂ μg/m³ PM1 μg/m³ PM2.5 μg/m³ PM10 μg/m³
Tuesday 4 August 2026
05:49 1 17.2 87 38,459 0.17 3.32 2.31 18.84 51.66 0 11.43 17.08 18.79
05:48 1 17.2 88 38,459 0.17 3.27 2.32 22.58 49.1 0 10.57 14.3 15.73
05:47 1 17.2 88 38,459 0.17 0.1 2.32 13.64 35.14 0 10.57 14.28 15.71
05:46 1 17.2 88 38,459 0.17 0 2.32 1.97 32.31 0 8.86 16.33 17.97
05:45 1 17.2 88 38,459 0.16 1.75 2.31 11.63 45.32 0 11.43 17.73 19.51
05:44 1 17.2 88 38,459 0.16 1.36 2.32 18.62 40.72 0 11.43 17.7 19.47
05:43 1 17.2 88 38,459 0.17 0.65 2.33 7.2 31.23 0 10.57 14.97 16.46
05:42 1 17.2 88 38,459 0.16 1.39 2.32 8.21 40.63 0 11.43 16.34 17.98
05:41 1 17.2 88 38,459 0.17 2.85 2.32 17.57 42.58 0 13.14 19.08 20.99
05:40 1 17.2 88 38,459 0.16 3.11 2.31 25.96 52.54 0 13.14 19.1 21.01
05:39 1 17.2 88 38,459 0.16 2.38 2.32 15.28 33.99 0 12.29 16.33 17.97
05:38 1 17.2 88 38,459 0.17 3.19 2.31 23.78 32.96 0 13.14 18.39 20.23
05:37 1 17.1 88 38,459 0.18 1.41 2.31 22.51 31.68 0 14 19.76 21.74
05:36 1 17.1 88 38,459 0.17 1.18 2.3 17.8 31.93 0 14 18.41 20.25
05:35 1 17.2 88 38,459 0.16 0.29 2.31 15.92 30.61 0 13.14 19.08 20.99
05:34 1 17.1 88 38,459 0.18 0.52 2.31 11.21 34.6 0 12.29 18.41 20.25
05:33 1 17.1 88 38,459 0.16 1.33 2.31 12.06 34.24 0 12.29 17.04 18.74
05:32 1 17.1 87 38,459 0.16 2.85 2.28 25.74 50.55 0 14 19.81 21.79
05:31 1 17.1 88 38,459 0.15 1.75 2.3 18.41 31.84 0 14 21.15 23.27
05:29 1 17.1 87 38,459 0.16 2.12 2.29 20.58 41.77 0 13.14 18.43 20.27